createdAt,value
2023-03-11T00:01:45.642Z,2.90
2023-03-11T00:04:31.946Z,2.70
2023-03-11T00:07:19.775Z,2.80
2023-03-11T00:10:07.666Z,2.67
2023-03-11T00:12:54.189Z,2.80
2023-03-11T00:15:41.542Z,2.33
2023-03-11T00:18:31.338Z,2.33
2023-03-11T00:21:20.319Z,1.80
2023-03-11T00:24:08.897Z,2.03
2023-03-11T00:26:55.562Z,2.10
2023-03-11T00:29:42.030Z,1.90
2023-03-11T00:32:28.420Z,1.90
2023-03-11T00:35:16.850Z,1.83
2023-03-11T00:38:05.851Z,2.00
2023-03-11T00:40:53.699Z,1.70
2023-03-11T00:43:40.382Z,1.90
2023-03-11T00:46:27.120Z,1.60
2023-03-11T00:49:13.716Z,1.60
2023-03-11T00:52:00.132Z,1.73
2023-03-11T00:54:47.190Z,1.80
2023-03-11T00:57:35.266Z,1.50
2023-03-11T01:00:23.999Z,1.70
2023-03-11T01:03:11.027Z,1.87
2023-03-11T01:05:57.729Z,1.60
2023-03-11T01:08:44.220Z,1.50
2023-03-11T01:11:30.845Z,1.60
2023-03-11T01:14:18.740Z,1.60
2023-03-11T01:17:05.290Z,1.70
2023-03-11T01:19:51.996Z,1.90
2023-03-11T01:22:38.238Z,1.50
2023-03-11T01:25:25.429Z,1.50
2023-03-11T01:28:12.556Z,1.53
2023-03-11T01:31:00.930Z,2.33
2023-03-11T01:33:47.430Z,1.60
2023-03-11T01:36:33.826Z,1.80
2023-03-11T01:39:20.222Z,2.20
2023-03-11T01:42:07.052Z,1.70
2023-03-11T01:44:53.569Z,1.30
2023-03-11T01:47:41.471Z,1.60
2023-03-11T01:50:31.702Z,1.30
2023-03-11T01:53:19.017Z,1.37
2023-03-11T01:56:06.979Z,1.90
2023-03-11T01:58:55.589Z,1.40
2023-03-11T02:01:49.249Z,1.67
2023-03-11T02:04:38.728Z,1.77
2023-03-11T02:07:25.082Z,1.30
2023-03-11T02:10:13.600Z,1.60
2023-03-11T02:13:01.228Z,1.73
2023-03-11T02:15:47.960Z,1.30
2023-03-11T02:18:35.169Z,1.50
2023-03-11T02:21:27.796Z,1.40
2023-03-11T02:24:18.267Z,1.50
2023-03-11T02:27:08.708Z,1.63
2023-03-11T02:29:56.896Z,1.73
2023-03-11T02:32:48.145Z,1.47
2023-03-11T02:35:34.721Z,1.40
2023-03-11T02:38:21.041Z,1.60
2023-03-11T02:41:07.959Z,1.73
2023-03-11T02:43:56.324Z,1.60
2023-03-11T02:46:44.514Z,1.90
2023-03-11T02:49:32.030Z,1.20
2023-03-11T02:52:18.853Z,1.40
2023-03-11T02:55:06.453Z,1.40
2023-03-11T02:57:52.666Z,1.23
2023-03-11T03:00:40.450Z,1.53
2023-03-11T03:03:27.407Z,1.40
2023-03-11T03:06:13.998Z,1.33
2023-03-11T03:09:00.793Z,1.30
2023-03-11T03:11:47.375Z,1.27
2023-03-11T03:14:33.979Z,1.20
2023-03-11T03:17:22.195Z,1.40
2023-03-11T03:20:12.621Z,1.40
2023-03-11T03:22:59.266Z,1.47
2023-03-11T03:25:46.690Z,1.90
2023-03-11T03:28:33.903Z,1.70
2023-03-11T03:31:20.393Z,1.60
2023-03-11T03:34:09.207Z,1.77
2023-03-11T03:36:55.841Z,1.40
2023-03-11T03:39:42.130Z,1.53
2023-03-11T03:42:28.838Z,1.57
2023-03-11T03:45:15.162Z,1.47
2023-03-11T03:48:01.474Z,1.43
2023-03-11T03:50:49.125Z,1.67
2023-03-11T03:53:36.869Z,1.80
2023-03-11T03:56:23.305Z,1.37
2023-03-11T03:59:09.634Z,1.70
2023-03-11T04:01:56.548Z,1.87
2023-03-11T04:04:43.381Z,1.90
2023-03-11T04:07:31.461Z,1.43
2023-03-11T04:10:18.259Z,1.23
2023-03-11T04:13:05.320Z,1.40
2023-03-11T04:15:51.826Z,1.30
2023-03-11T04:18:38.072Z,1.40
2023-03-11T04:21:24.752Z,1.70
2023-03-11T04:24:12.719Z,1.73
2023-03-11T04:26:59.082Z,1.57
2023-03-11T04:29:45.437Z,1.03
2023-03-11T04:32:31.837Z,1.40
2023-03-11T04:35:18.564Z,1.30
2023-03-11T04:38:05.030Z,1.47
2023-03-11T04:40:52.845Z,1.00
2023-03-11T04:43:39.637Z,1.20
2023-03-11T04:46:26.187Z,1.17
2023-03-11T04:49:12.891Z,1.30
2023-03-11T04:51:59.173Z,1.30
2023-03-11T04:54:45.672Z,1.60
2023-03-11T04:57:33.356Z,1.20
2023-03-11T05:00:24.626Z,1.43
2023-03-11T05:03:11.003Z,1.33
2023-03-11T05:05:57.506Z,0.90
2023-03-11T05:08:45.090Z,1.53
2023-03-11T05:11:31.591Z,1.10
2023-03-11T05:14:19.635Z,1.43
2023-03-11T05:17:06.437Z,1.37
2023-03-11T05:19:53.732Z,1.40
2023-03-11T05:22:40.546Z,1.17
2023-03-11T05:25:27.092Z,1.40
2023-03-11T05:28:13.588Z,1.50
2023-03-11T05:31:01.320Z,1.47
2023-03-11T05:33:47.732Z,1.43
2023-03-11T05:36:34.182Z,1.10
2023-03-11T05:39:20.602Z,1.37
2023-03-11T05:42:07.898Z,1.17
2023-03-11T05:44:54.361Z,1.47
2023-03-11T05:47:42.417Z,1.20
2023-03-11T05:50:28.829Z,1.30
2023-03-11T05:53:15.263Z,1.10
2023-03-11T05:56:01.977Z,1.00
2023-03-11T05:58:49.592Z,1.20
2023-03-11T06:01:36.377Z,1.20
2023-03-11T06:04:24.310Z,1.10
2023-03-11T06:07:12.264Z,1.00
2023-03-11T06:09:58.775Z,1.10
2023-03-11T06:12:45.268Z,1.07
2023-03-11T06:15:31.563Z,1.20
2023-03-11T06:18:17.929Z,1.53
2023-03-11T06:21:06.180Z,1.67
2023-03-11T06:23:52.599Z,1.00
2023-03-11T06:26:39.172Z,0.90
2023-03-11T06:29:26.771Z,1.33
2023-03-11T06:32:13.587Z,0.90
2023-03-11T06:35:00.561Z,1.10
2023-03-11T06:37:48.483Z,1.03
2023-03-11T06:40:35.529Z,1.20
2023-03-11T06:43:23.476Z,1.07
2023-03-11T06:46:11.376Z,0.80
2023-03-11T06:48:58.760Z,1.57
2023-03-11T06:51:45.139Z,0.80
2023-03-11T06:54:33.002Z,0.97
2023-03-11T06:57:19.654Z,0.73
2023-03-11T07:00:10.933Z,1.23
2023-03-11T07:02:57.582Z,1.00
2023-03-11T07:05:43.994Z,1.07
2023-03-11T07:08:30.491Z,1.10
2023-03-11T07:11:20.604Z,1.00
2023-03-11T07:14:07.099Z,1.10
2023-03-11T07:16:54.074Z,1.53
2023-03-11T07:19:41.110Z,1.10
2023-03-11T07:22:27.752Z,1.20
2023-03-11T07:25:14.907Z,0.90
2023-03-11T07:28:02.978Z,1.20
2023-03-11T07:30:49.859Z,1.20
2023-03-11T07:33:36.878Z,1.10
2023-03-11T07:36:25.600Z,1.33
2023-03-11T07:39:16.211Z,1.40
2023-03-11T07:42:02.755Z,1.43
2023-03-11T07:44:53.048Z,1.20
2023-03-11T07:47:39.832Z,1.30
2023-03-11T07:50:26.365Z,1.40
2023-03-11T07:53:12.781Z,1.60
2023-03-11T07:55:59.912Z,1.30
2023-03-11T07:58:47.389Z,1.40
2023-03-11T08:01:38.448Z,1.27
2023-03-11T08:04:24.831Z,0.93
2023-03-11T08:07:11.355Z,1.20
2023-03-11T08:09:57.866Z,1.40
2023-03-11T08:12:44.773Z,1.37
2023-03-11T08:15:31.241Z,1.37
2023-03-11T08:18:19.154Z,1.07
2023-03-11T08:21:06.998Z,1.20
2023-03-11T08:23:53.859Z,1.40
2023-03-11T08:26:40.924Z,1.17
2023-03-11T08:29:27.578Z,1.07
2023-03-11T08:32:13.970Z,1.20
2023-03-11T08:35:01.973Z,1.20
2023-03-11T08:37:48.701Z,1.20
2023-03-11T08:40:35.175Z,1.07
2023-03-11T08:43:21.691Z,1.30
2023-03-11T08:46:08.734Z,1.43
2023-03-11T08:48:56.038Z,1.17
2023-03-11T08:51:44.206Z,1.40
2023-03-11T08:54:30.917Z,1.17
2023-03-11T08:57:17.238Z,1.27
2023-03-11T09:00:03.689Z,1.00
2023-03-11T09:02:50.211Z,1.30
2023-03-11T09:05:37.412Z,1.37
2023-03-11T09:08:25.566Z,1.23
2023-03-11T09:11:13.490Z,1.23
2023-03-11T09:14:00.250Z,1.30
2023-03-11T09:16:47.067Z,1.30
2023-03-11T09:19:33.491Z,1.00
2023-03-11T09:22:20.076Z,0.93
2023-03-11T09:25:09.187Z,1.30
2023-03-11T09:27:55.958Z,1.10
2023-03-11T09:30:42.562Z,1.37
2023-03-11T09:33:29.176Z,1.10
2023-03-11T09:36:17.095Z,1.30
2023-03-11T09:39:03.526Z,1.23
2023-03-11T09:41:58.752Z,1.10
2023-03-11T09:44:52.129Z,1.07
2023-03-11T09:47:41.815Z,1.40
2023-03-11T09:50:32.124Z,1.13
2023-03-11T09:53:37.703Z,1.27
2023-03-11T09:56:24.621Z,1.23
2023-03-11T09:59:22.861Z,1.17
2023-03-11T10:02:15.735Z,1.33
2023-03-11T10:05:05.334Z,1.40
2023-03-11T10:07:58.453Z,1.67
2023-03-11T10:10:51.261Z,1.10
2023-03-11T10:13:46.342Z,1.10
2023-03-11T10:16:42.895Z,1.03
2023-03-11T10:19:40.364Z,1.00
2023-03-11T10:22:35.454Z,0.97
2023-03-11T10:25:26.345Z,1.33
2023-03-11T10:28:15.604Z,1.27
2023-03-11T10:31:07.140Z,1.20
2023-03-11T10:34:00.838Z,1.53
2023-03-11T10:36:55.216Z,1.37
2023-03-11T10:39:42.313Z,1.50
2023-03-11T10:42:30.542Z,1.40
2023-03-11T10:45:17.433Z,1.70
2023-03-11T10:48:04.217Z,1.80
2023-03-11T10:51:02.514Z,1.57
2023-03-11T10:53:50.718Z,1.40
2023-03-11T10:56:38.862Z,1.40
2023-03-11T10:59:27.902Z,3.30
2023-03-11T11:02:26.190Z,1.07
2023-03-11T11:05:29.433Z,2.80
2023-03-11T11:08:20.152Z,0.93
2023-03-11T11:11:22.302Z,0.97
2023-03-11T11:14:10.324Z,1.23
2023-03-11T11:16:57.221Z,1.17
2023-03-11T11:19:45.834Z,2.03
2023-03-11T11:22:32.474Z,1.40
2023-03-11T11:25:33.715Z,1.40
2023-03-11T11:28:21.964Z,1.33
2023-03-11T11:31:23.625Z,1.40
2023-03-11T11:34:30.022Z,1.27
2023-03-11T11:37:16.436Z,1.23
2023-03-11T11:40:11.472Z,1.43
2023-03-11T11:43:04.549Z,1.50
2023-03-11T11:45:57.212Z,1.40
2023-03-11T11:48:50.684Z,1.60
2023-03-11T11:51:42.475Z,0.70
2023-03-11T11:54:32.289Z,1.30
2023-03-11T11:57:21.544Z,1.60
2023-03-11T12:00:24.369Z,1.33
2023-03-11T12:03:43.630Z,1.80
2023-03-11T12:06:35.608Z,1.40
2023-03-11T12:09:27.383Z,1.10
2023-03-11T12:12:22.839Z,1.10
2023-03-11T12:15:17.006Z,0.90
2023-03-11T12:18:09.729Z,1.50
2023-03-11T12:20:56.941Z,1.23
2023-03-11T12:23:56.878Z,1.10
2023-03-11T12:26:46.663Z,1.23
2023-03-11T12:29:36.924Z,1.10
2023-03-11T12:32:31.533Z,1.10
2023-03-11T12:35:25.043Z,1.30
2023-03-11T12:38:19.337Z,1.23
2023-03-11T12:41:08.842Z,1.17
2023-03-11T12:44:08.803Z,1.53
2023-03-11T12:47:18.267Z,1.10
2023-03-11T12:50:43.683Z,1.20
2023-03-11T12:53:47.641Z,2.77
2023-03-11T12:56:38.164Z,1.43
2023-03-11T13:00:07.087Z,3.33
2023-03-11T13:03:29.605Z,4.07
2023-03-11T13:06:28.733Z,1.80
2023-03-11T13:09:17.859Z,1.20
2023-03-11T13:12:04.497Z,1.50
2023-03-11T13:15:35.380Z,1.77
2023-03-11T13:18:25.556Z,1.10
2023-03-11T13:21:41.864Z,0.93
2023-03-11T13:24:53.116Z,1.10
2023-03-11T13:27:45.287Z,1.00
2023-03-11T13:30:39.988Z,1.17
2023-03-11T13:33:50.171Z,0.90
2023-03-11T13:36:51.173Z,1.23
2023-03-11T13:40:02.278Z,1.00
2023-03-11T13:42:51.680Z,1.27
2023-03-11T13:45:39.738Z,0.80
2023-03-11T13:48:31.133Z,1.03
2023-03-11T13:51:21.574Z,1.30
2023-03-11T13:54:27.606Z,0.83
2023-03-11T13:57:32.654Z,1.03
2023-03-11T14:00:24.181Z,1.40
2023-03-11T14:03:14.080Z,1.67
2023-03-11T14:06:03.771Z,0.97
2023-03-11T14:08:54.696Z,0.97
2023-03-11T14:11:47.701Z,0.80
2023-03-11T14:14:47.808Z,1.10
2023-03-11T14:17:34.485Z,1.07
2023-03-11T14:20:25.387Z,1.03
2023-03-11T14:23:19.682Z,1.23
2023-03-11T14:26:08.834Z,3.10
2023-03-11T14:28:59.037Z,0.83
2023-03-11T14:31:46.534Z,0.80
2023-03-11T14:34:40.867Z,1.03
2023-03-11T14:37:32.908Z,0.77
2023-03-11T14:40:28.788Z,0.80
2023-03-11T14:43:15.276Z,0.90
2023-03-11T14:46:05.343Z,0.70
2023-03-11T14:48:53.008Z,0.63
2023-03-11T14:51:39.751Z,0.77
2023-03-11T14:54:29.963Z,0.90
2023-03-11T14:57:23.765Z,0.90
2023-03-11T15:00:17.520Z,1.00
2023-03-11T15:03:14.263Z,0.73
2023-03-11T15:06:04.157Z,1.07
2023-03-11T15:08:56.341Z,1.10
2023-03-11T15:11:48.334Z,0.80
2023-03-11T15:14:36.840Z,1.33
2023-03-11T15:17:36.494Z,4.47
2023-03-11T15:20:31.062Z,1.40
2023-03-11T15:23:23.103Z,1.23
2023-03-11T15:26:20.470Z,1.57
2023-03-11T15:29:15.704Z,1.23
2023-03-11T15:32:22.336Z,2.37
2023-03-11T15:35:18.456Z,1.10
2023-03-11T15:38:23.609Z,1.60
2023-03-11T15:41:11.952Z,1.10
2023-03-11T15:44:01.993Z,0.90
2023-03-11T15:46:48.836Z,1.00
2023-03-11T15:49:35.552Z,0.70
2023-03-11T15:52:21.864Z,0.90
2023-03-11T15:55:11.796Z,1.10
2023-03-11T15:58:04.260Z,0.93
2023-03-11T16:00:52.434Z,0.87
2023-03-11T16:03:39.106Z,0.90
2023-03-11T16:06:25.841Z,1.07
2023-03-11T16:09:14.742Z,0.77
2023-03-11T16:12:03.337Z,0.80
2023-03-11T16:14:52.560Z,1.03
2023-03-11T16:17:49.343Z,0.90
2023-03-11T16:20:41.093Z,1.00
2023-03-11T16:23:44.850Z,1.10
2023-03-11T16:26:37.435Z,1.30
2023-03-11T16:29:26.982Z,0.90
2023-03-11T16:32:13.610Z,1.13
2023-03-11T16:35:00.197Z,1.23
2023-03-11T16:37:47.388Z,0.90
2023-03-11T16:40:34.244Z,4.30
2023-03-11T16:43:20.903Z,1.07
2023-03-11T16:46:08.784Z,1.73
2023-03-11T16:48:55.210Z,1.60
2023-03-11T16:51:41.517Z,1.40
2023-03-11T16:54:27.874Z,1.30
2023-03-11T16:57:14.839Z,0.97
2023-03-11T17:00:01.979Z,1.03
2023-03-11T17:02:49.825Z,1.27
2023-03-11T17:05:36.579Z,1.30
2023-03-11T17:08:24.904Z,1.33
2023-03-11T17:11:16.872Z,1.60
2023-03-11T17:14:15.434Z,1.50
2023-03-11T17:17:02.798Z,1.43
2023-03-11T17:19:50.837Z,1.47
2023-03-11T17:22:37.502Z,1.53
2023-03-11T17:25:24.425Z,1.27
2023-03-11T17:28:10.889Z,1.20
2023-03-11T17:30:57.332Z,2.10
2023-03-11T17:33:44.090Z,4.17
2023-03-11T17:36:32.162Z,1.67
2023-03-11T17:39:18.555Z,2.00
2023-03-11T17:42:05.321Z,1.30
2023-03-11T17:44:52.348Z,2.10
2023-03-11T17:47:38.839Z,1.90
2023-03-11T17:50:26.353Z,1.80
2023-03-11T17:53:14.063Z,2.17
2023-03-11T17:56:00.742Z,2.27
2023-03-11T17:58:47.799Z,3.37
2023-03-11T18:01:34.680Z,2.80
2023-03-11T18:04:21.518Z,3.00
2023-03-11T18:07:08.527Z,2.20
2023-03-11T18:09:56.600Z,1.70
2023-03-11T18:12:45.114Z,2.00
2023-03-11T18:15:31.439Z,1.80
2023-03-11T18:18:17.976Z,1.80
2023-03-11T18:21:04.960Z,1.50
2023-03-11T18:23:54.044Z,1.87
2023-03-11T18:26:41.856Z,1.70
2023-03-11T18:29:28.275Z,1.70
2023-03-11T18:32:14.597Z,1.67
2023-03-11T18:35:01.101Z,2.00
2023-03-11T18:37:47.529Z,2.00
2023-03-11T18:40:34.012Z,2.37
2023-03-11T18:43:21.864Z,2.80
2023-03-11T18:46:09.526Z,7.60
2023-03-11T18:48:57.388Z,2.30
2023-03-11T18:51:44.175Z,2.00
2023-03-11T18:54:30.665Z,2.00
2023-03-11T18:57:17.126Z,2.00
2023-03-11T19:00:05.627Z,1.83
2023-03-11T19:02:53.083Z,3.17
2023-03-11T19:05:39.802Z,2.20
2023-03-11T19:08:26.878Z,2.40
2023-03-11T19:11:16.564Z,2.07
2023-03-11T19:14:03.168Z,2.47
2023-03-11T19:16:51.257Z,3.23
2023-03-11T19:19:37.790Z,2.90
2023-03-11T19:22:24.197Z,2.10
2023-03-11T19:25:11.115Z,2.57
2023-03-11T19:27:58.176Z,2.73
2023-03-11T19:30:44.938Z,2.67
2023-03-11T19:33:32.745Z,2.40
2023-03-11T19:36:19.864Z,2.27
2023-03-11T19:39:06.664Z,3.50
2023-03-11T19:41:53.993Z,2.63
2023-03-11T19:44:40.727Z,2.50
2023-03-11T19:47:27.454Z,2.83
2023-03-11T19:50:15.186Z,2.70
2023-03-11T19:53:01.733Z,3.10
2023-03-11T19:55:50.746Z,3.07
2023-03-11T19:58:38.215Z,3.00
2023-03-11T20:01:25.344Z,2.20
2023-03-11T20:04:12.615Z,2.10
2023-03-11T20:07:00.753Z,2.63
2023-03-11T20:09:47.331Z,3.00
2023-03-11T20:12:34.401Z,2.73
2023-03-11T20:15:20.626Z,2.43
2023-03-11T20:18:08.025Z,2.47
2023-03-11T20:20:54.940Z,2.10
2023-03-11T20:23:42.738Z,2.17
2023-03-11T20:26:29.399Z,2.00
2023-03-11T20:29:16.515Z,2.37
2023-03-11T20:32:04.441Z,2.40
2023-03-11T20:34:51.280Z,1.93
2023-03-11T20:37:37.818Z,2.20
2023-03-11T20:40:25.795Z,2.17
2023-03-11T20:43:12.456Z,2.20
2023-03-11T20:45:59.508Z,2.10
2023-03-11T20:48:46.637Z,2.37
2023-03-11T20:51:33.370Z,2.50
2023-03-11T20:54:20.231Z,3.00
2023-03-11T20:57:08.808Z,2.90
2023-03-11T20:59:55.341Z,2.33
2023-03-11T21:02:43.402Z,2.17
2023-03-11T21:05:30.069Z,2.20
2023-03-11T21:08:16.451Z,2.00
2023-03-11T21:11:02.723Z,2.27
2023-03-11T21:13:51.540Z,2.70
2023-03-11T21:16:38.789Z,2.20
2023-03-11T21:19:25.671Z,2.20
2023-03-11T21:22:12.236Z,2.00
2023-03-11T21:24:58.722Z,2.10
2023-03-11T21:27:45.589Z,2.23
2023-03-11T21:30:33.703Z,2.27
2023-03-11T21:33:20.456Z,2.30
2023-03-11T21:36:08.320Z,2.13
2023-03-11T21:38:54.906Z,2.20
2023-03-11T21:41:41.161Z,2.43
2023-03-11T21:44:27.658Z,2.30
2023-03-11T21:47:15.644Z,2.20
2023-03-11T21:50:02.279Z,2.10
2023-03-11T21:52:49.194Z,2.73
2023-03-11T21:55:35.887Z,3.50
2023-03-11T21:58:22.958Z,3.53
2023-03-11T22:01:10.166Z,3.67
2023-03-11T22:03:58.235Z,2.13
2023-03-11T22:06:44.828Z,5.03
2023-03-11T22:09:31.351Z,3.93
2023-03-11T22:12:17.605Z,2.90
2023-03-11T22:15:04.926Z,2.90
2023-03-11T22:17:51.510Z,2.27
2023-03-11T22:20:41.352Z,2.23
2023-03-11T22:23:28.389Z,2.20
2023-03-11T22:26:15.914Z,2.30
2023-03-11T22:29:04.094Z,2.60
2023-03-11T22:31:51.259Z,2.80
2023-03-11T22:34:37.699Z,1.97
2023-03-11T22:37:25.602Z,2.40
2023-03-11T22:40:13.012Z,2.43
2023-03-11T22:42:59.695Z,2.63
2023-03-11T22:45:46.783Z,2.50
2023-03-11T22:48:33.995Z,2.40
2023-03-11T22:51:20.326Z,2.43
2023-03-11T22:54:08.051Z,2.40
2023-03-11T22:56:55.056Z,2.87
2023-03-11T22:59:41.353Z,2.60
2023-03-11T23:02:28.106Z,2.70
2023-03-11T23:05:15.858Z,2.80
2023-03-11T23:08:02.228Z,2.53
2023-03-11T23:10:49.973Z,2.60
2023-03-11T23:13:36.743Z,3.20
2023-03-11T23:16:24.628Z,3.50
2023-03-11T23:19:11.440Z,3.10
2023-03-11T23:21:57.951Z,3.00
2023-03-11T23:24:44.570Z,3.53
2023-03-11T23:27:32.424Z,3.53
2023-03-11T23:30:19.084Z,3.00
2023-03-11T23:33:05.907Z,3.07
2023-03-11T23:35:52.327Z,3.03
2023-03-11T23:38:38.927Z,2.80
2023-03-11T23:41:25.594Z,2.27
2023-03-11T23:44:14.418Z,2.30
2023-03-11T23:47:00.907Z,2.23
2023-03-11T23:49:47.386Z,2.40
2023-03-11T23:52:34.041Z,2.43
2023-03-11T23:55:20.496Z,2.47
2023-03-11T23:58:07.187Z,2.67
